createdAt,value
2023-05-25T00:00:15.507Z,23.8
2023-05-25T00:01:21.995Z,23.8
2023-05-25T00:02:28.488Z,23.8
2023-05-25T00:03:35.005Z,23.8
2023-05-25T00:04:41.542Z,23.8
2023-05-25T00:05:48.163Z,23.8
2023-05-25T00:06:54.616Z,23.8
2023-05-25T00:08:01.156Z,23.8
2023-05-25T00:09:07.758Z,23.8
2023-05-25T00:10:14.228Z,23.8
2023-05-25T00:11:20.882Z,23.8
2023-05-25T00:12:27.298Z,23.8
2023-05-25T00:13:34.041Z,23.8
2023-05-25T00:14:40.797Z,23.7
2023-05-25T00:15:47.574Z,23.7
2023-05-25T00:16:54.335Z,23.7
2023-05-25T00:18:01.122Z,23.7
2023-05-25T00:19:07.900Z,23.7
2023-05-25T00:20:14.707Z,23.7
2023-05-25T00:21:21.454Z,23.7
2023-05-25T00:22:28.217Z,23.7
2023-05-25T00:23:35.089Z,23.7
2023-05-25T00:24:41.830Z,23.7
2023-05-25T00:25:48.559Z,23.7
2023-05-25T00:26:55.330Z,23.7
2023-05-25T00:28:02.569Z,23.7
2023-05-25T00:29:41.291Z,23.7
2023-05-25T00:31:20.038Z,23.7
2023-05-25T00:32:58.770Z,23.7
2023-05-25T00:34:37.526Z,23.7
2023-05-25T00:36:16.306Z,23.6
2023-05-25T00:37:54.996Z,23.6
2023-05-25T00:39:33.718Z,23.6
2023-05-25T00:41:12.436Z,23.6
2023-05-25T00:42:51.179Z,23.6
2023-05-25T00:44:29.907Z,23.6
2023-05-25T00:46:08.642Z,23.6
2023-05-25T00:47:47.367Z,23.6
2023-05-25T00:51:55.408Z,23.6
2023-05-25T00:53:02.236Z,23.6
2023-05-25T00:55:11.316Z,23.5
2023-05-25T00:56:18.096Z,23.6
2023-05-25T00:57:24.879Z,23.5
2023-05-25T00:58:31.627Z,23.5
2023-05-25T00:59:38.411Z,23.5
2023-05-25T01:00:45.177Z,23.5
2023-05-25T01:01:51.957Z,23.5
2023-05-25T01:02:58.748Z,23.5
2023-05-25T01:04:05.501Z,23.5
2023-05-25T01:05:12.277Z,23.5
2023-05-25T01:06:19.075Z,23.5
2023-05-25T01:07:25.858Z,23.5
2023-05-25T01:08:32.600Z,23.5
2023-05-25T01:09:39.381Z,23.5
2023-05-25T01:10:46.194Z,23.5
2023-05-25T01:11:52.926Z,23.5
2023-05-25T01:12:59.712Z,23.5
2023-05-25T01:14:06.559Z,23.5
2023-05-25T01:15:13.277Z,23.5
2023-05-25T01:16:20.028Z,23.5
2023-05-25T01:17:26.803Z,23.5
2023-05-25T01:18:33.574Z,23.5
2023-05-25T01:19:40.342Z,23.5
2023-05-25T01:20:47.150Z,23.5
2023-05-25T01:22:59.342Z,23.5
2023-05-25T01:24:38.059Z,23.5
2023-05-25T01:26:16.852Z,23.4
2023-05-25T01:27:54.340Z,23.4
2023-05-25T01:29:01.590Z,23.4
2023-05-25T01:30:40.320Z,23.4
2023-05-25T01:32:19.106Z,23.4
2023-05-25T01:33:57.809Z,23.4
2023-05-25T01:35:36.615Z,23.4
2023-05-25T01:37:15.272Z,23.4
2023-05-25T01:38:53.995Z,23.4
2023-05-25T01:40:32.733Z,23.4
2023-05-25T01:42:11.468Z,23.4
2023-05-25T01:44:22.345Z,23.4
2023-05-25T01:46:17.764Z,23.4
2023-05-25T01:47:24.359Z,23.4
2023-05-25T01:48:30.845Z,23.4
2023-05-25T01:49:37.384Z,23.4
2023-05-25T01:50:43.899Z,23.4
2023-05-25T01:51:50.445Z,23.4
2023-05-25T01:52:56.971Z,23.3
2023-05-25T01:54:03.541Z,23.4
2023-05-25T01:55:10.065Z,23.4
2023-05-25T01:56:16.583Z,23.3
2023-05-25T01:57:23.146Z,23.3
2023-05-25T01:58:29.712Z,23.3
2023-05-25T01:59:36.207Z,23.3
2023-05-25T02:00:42.748Z,23.3
2023-05-25T02:01:49.264Z,23.3
2023-05-25T02:02:55.793Z,23.3
2023-05-25T02:04:02.329Z,23.3
2023-05-25T02:05:08.892Z,23.3
2023-05-25T02:06:15.407Z,23.3
2023-05-25T02:07:21.935Z,23.3
2023-05-25T02:08:28.471Z,23.3
2023-05-25T02:09:35.031Z,23.3
2023-05-25T02:10:41.549Z,23.3
2023-05-25T02:11:48.079Z,23.3
2023-05-25T02:12:54.621Z,23.3
2023-05-25T02:14:01.341Z,23.3
2023-05-25T02:15:08.104Z,23.3
2023-05-25T02:16:14.886Z,23.3
2023-05-25T02:17:21.650Z,23.2
2023-05-25T02:18:28.430Z,23.2
2023-05-25T02:19:35.218Z,23.2
2023-05-25T02:20:41.971Z,23.2
2023-05-25T02:21:48.765Z,23.2
2023-05-25T02:22:55.519Z,23.2
2023-05-25T02:24:02.384Z,23.2
2023-05-25T02:25:09.065Z,23.2
2023-05-25T02:26:15.891Z,23.2
2023-05-25T02:27:22.671Z,23.2
2023-05-25T02:30:01.443Z,23.2
2023-05-25T02:31:40.166Z,23.2
2023-05-25T02:33:18.897Z,23.2
2023-05-25T02:34:57.640Z,23.2
2023-05-25T02:36:04.883Z,23.2
2023-05-25T02:37:12.141Z,23.2
2023-05-25T02:38:50.905Z,23.2
2023-05-25T02:40:29.617Z,23.2
2023-05-25T02:42:08.334Z,23.2
2023-05-25T02:43:47.067Z,23.2
2023-05-25T02:45:25.805Z,23.2
2023-05-25T02:47:04.532Z,23.1
2023-05-25T02:48:43.260Z,23.1
2023-05-25T02:52:32.877Z,23.1
2023-05-25T02:53:39.668Z,23.1
2023-05-25T02:54:46.200Z,23.1
2023-05-25T02:55:52.737Z,23.1
2023-05-25T02:56:59.264Z,23.1
2023-05-25T02:58:05.805Z,23.1
2023-05-25T02:59:12.346Z,23.1
2023-05-25T03:00:18.878Z,23.1
2023-05-25T03:01:25.438Z,23.1
2023-05-25T03:02:31.949Z,23.1
2023-05-25T03:03:38.490Z,23.1
2023-05-25T03:04:45.053Z,23.1
2023-05-25T03:05:51.564Z,23.1
2023-05-25T03:06:58.111Z,23.1
2023-05-25T03:08:04.636Z,23.1
2023-05-25T03:09:11.173Z,23
2023-05-25T03:10:17.696Z,23.1
2023-05-25T03:11:24.241Z,23
2023-05-25T03:12:30.754Z,23
2023-05-25T03:13:37.300Z,23
2023-05-25T03:14:43.815Z,23
2023-05-25T03:15:50.352Z,23
2023-05-25T03:16:56.883Z,23
2023-05-25T03:18:03.416Z,23
2023-05-25T03:19:09.978Z,23
2023-05-25T03:20:16.524Z,23
2023-05-25T03:21:23.189Z,23
2023-05-25T03:22:29.948Z,23
2023-05-25T03:23:36.757Z,23
2023-05-25T03:24:43.530Z,23
2023-05-25T03:25:50.254Z,23
2023-05-25T03:26:57.029Z,23
2023-05-25T03:28:03.809Z,23
2023-05-25T03:29:10.577Z,23
2023-05-25T03:30:17.345Z,23
2023-05-25T03:31:24.118Z,23
2023-05-25T03:32:30.909Z,23
2023-05-25T03:33:37.659Z,22.9
2023-05-25T03:34:44.477Z,23
2023-05-25T03:37:22.925Z,23
2023-05-25T03:39:01.665Z,22.9
2023-05-25T03:40:40.384Z,22.9
2023-05-25T03:42:19.135Z,22.9
2023-05-25T03:43:26.429Z,22.9
2023-05-25T03:44:33.619Z,22.9
2023-05-25T03:46:12.360Z,22.9
2023-05-25T03:47:51.095Z,22.9
2023-05-25T03:49:29.832Z,22.9
2023-05-25T03:51:08.571Z,22.9
2023-05-25T03:52:47.360Z,22.9
2023-05-25T03:54:26.042Z,22.9
2023-05-25T03:56:04.763Z,22.9
2023-05-25T03:59:54.377Z,22.9
2023-05-25T04:01:01.027Z,22.9
2023-05-25T04:02:07.499Z,22.9
2023-05-25T04:03:14.058Z,22.9
2023-05-25T04:04:20.596Z,22.9
2023-05-25T04:05:27.107Z,22.9
2023-05-25T04:06:33.698Z,22.9
2023-05-25T04:07:40.181Z,22.9
2023-05-25T04:08:46.744Z,22.8
2023-05-25T04:09:53.271Z,22.9
2023-05-25T04:10:59.801Z,22.9
2023-05-25T04:12:06.323Z,22.8
2023-05-25T04:13:12.865Z,22.8
2023-05-25T04:14:19.404Z,22.9
2023-05-25T04:15:25.929Z,22.8
2023-05-25T04:16:32.484Z,22.8
2023-05-25T04:17:39.005Z,22.8
2023-05-25T04:18:45.545Z,22.8
2023-05-25T04:19:52.074Z,22.8
2023-05-25T04:20:58.613Z,22.8
2023-05-25T04:22:05.197Z,22.8
2023-05-25T04:23:11.689Z,22.8
2023-05-25T04:24:18.227Z,22.8
2023-05-25T04:25:24.760Z,22.8
2023-05-25T04:26:31.296Z,22.8
2023-05-25T04:27:37.840Z,22.8
2023-05-25T04:28:44.553Z,22.8
2023-05-25T04:29:51.327Z,22.8
2023-05-25T04:30:58.145Z,22.8
2023-05-25T04:32:04.874Z,22.8
2023-05-25T04:33:11.661Z,22.8
2023-05-25T04:34:18.429Z,22.8
2023-05-25T04:35:25.214Z,22.8
2023-05-25T04:36:32.017Z,22.8
2023-05-25T04:37:38.769Z,22.8
2023-05-25T04:38:45.536Z,22.8
2023-05-25T04:39:52.307Z,22.8
2023-05-25T04:40:59.087Z,22.8
2023-05-25T04:44:45.372Z,22.8
2023-05-25T04:46:24.121Z,22.8
2023-05-25T04:48:02.873Z,22.8
2023-05-25T04:49:41.605Z,22.8
2023-05-25T04:50:48.838Z,22.8
2023-05-25T04:51:56.099Z,22.8
2023-05-25T04:53:34.835Z,22.8
2023-05-25T04:55:13.569Z,22.8
2023-05-25T04:56:52.299Z,22.8
2023-05-25T04:58:31.045Z,22.8
2023-05-25T05:00:09.773Z,22.8
2023-05-25T05:01:48.514Z,22.8
2023-05-25T05:03:27.238Z,22.8
2023-05-25T05:07:16.848Z,22.8
2023-05-25T05:08:23.679Z,22.8
2023-05-25T05:09:30.457Z,22.8
2023-05-25T05:10:37.219Z,22.8
2023-05-25T05:11:44.010Z,22.8
2023-05-25T05:12:50.791Z,22.8
2023-05-25T05:13:57.551Z,22.8
2023-05-25T05:15:04.417Z,22.8
2023-05-25T05:16:11.105Z,22.8
2023-05-25T05:17:17.892Z,22.8
2023-05-25T05:18:24.676Z,22.8
2023-05-25T05:19:31.437Z,22.8
2023-05-25T05:20:38.219Z,22.8
2023-05-25T05:21:45.097Z,22.8
2023-05-25T05:22:51.771Z,22.8
2023-05-25T05:23:58.554Z,22.8
2023-05-25T05:25:05.316Z,22.8
2023-05-25T05:26:12.135Z,22.8
2023-05-25T05:27:18.878Z,22.8
2023-05-25T05:28:25.740Z,22.8
2023-05-25T05:29:32.472Z,22.8
2023-05-25T05:30:39.251Z,22.8
2023-05-25T05:31:45.979Z,22.8
2023-05-25T05:32:52.884Z,22.8
2023-05-25T05:33:59.529Z,22.8
2023-05-25T05:35:06.380Z,22.8
2023-05-25T05:37:18.594Z,22.8
2023-05-25T05:38:57.294Z,22.8
2023-05-25T05:40:09.964Z,22.8
2023-05-25T05:41:17.140Z,22.8
2023-05-25T05:42:55.915Z,22.8
2023-05-25T05:44:34.690Z,22.8
2023-05-25T05:46:13.340Z,22.8
2023-05-25T05:47:52.087Z,22.8
2023-05-25T05:49:30.810Z,22.8
2023-05-25T05:51:09.555Z,22.8
2023-05-25T05:52:48.316Z,22.8
2023-05-25T05:54:27.048Z,22.8
2023-05-25T05:56:05.753Z,22.8
2023-05-25T05:57:45.502Z,22.8
2023-05-25T06:01:02.000Z,22.8
2023-05-25T06:02:48.890Z,22.8
2023-05-25T06:04:27.685Z,22.8
2023-05-25T06:06:06.317Z,22.8
2023-05-25T06:07:45.075Z,22.8
2023-05-25T06:09:23.756Z,22.8
2023-05-25T06:11:02.497Z,22.8
2023-05-25T06:12:41.351Z,22.8
2023-05-25T06:14:20.105Z,22.8
2023-05-25T06:15:58.762Z,22.8
2023-05-25T06:17:37.595Z,22.8
2023-05-25T06:19:16.291Z,22.8
2023-05-25T06:20:55.014Z,22.9
2023-05-25T06:22:02.315Z,22.9
2023-05-25T06:23:09.515Z,22.9
2023-05-25T06:24:48.244Z,22.9
2023-05-25T06:26:26.907Z,22.9
2023-05-25T06:28:05.584Z,22.9
2023-05-25T06:29:44.318Z,22.9
2023-05-25T06:31:23.128Z,22.9
2023-05-25T06:33:01.799Z,22.9
2023-05-25T06:34:40.530Z,22.9
2023-05-25T06:36:19.281Z,22.9
2023-05-25T06:37:57.992Z,22.9
2023-05-25T06:39:05.250Z,22.9
2023-05-25T06:42:06.043Z,22.9
2023-05-25T06:45:22.011Z,22.9
2023-05-25T06:46:28.928Z,22.9
2023-05-25T06:47:35.493Z,22.9
2023-05-25T06:48:42.272Z,22.9
2023-05-25T06:49:49.089Z,22.9
2023-05-25T06:50:55.826Z,22.9
2023-05-25T06:52:02.601Z,22.9
2023-05-25T06:53:09.425Z,22.9
2023-05-25T06:54:16.158Z,22.9
2023-05-25T06:55:22.954Z,22.9
2023-05-25T06:56:29.720Z,22.9
2023-05-25T06:57:36.488Z,22.9
2023-05-25T06:58:43.265Z,22.9
2023-05-25T06:59:50.034Z,22.9
2023-05-25T07:00:57.023Z,22.9
2023-05-25T07:02:03.596Z,22.9
2023-05-25T07:03:10.380Z,22.9
2023-05-25T07:04:17.173Z,22.9
2023-05-25T07:05:23.921Z,22.9
2023-05-25T07:06:30.702Z,22.9
2023-05-25T07:07:37.476Z,22.9
2023-05-25T07:08:44.257Z,22.9
2023-05-25T07:09:51.032Z,22.9
2023-05-25T07:10:57.801Z,22.9
2023-05-25T07:12:04.577Z,22.9
2023-05-25T07:13:37.932Z,22.9
2023-05-25T07:14:45.178Z,22.9
2023-05-25T07:16:23.920Z,22.9
2023-05-25T07:18:02.648Z,22.9
2023-05-25T07:19:41.376Z,22.9
2023-05-25T07:21:20.119Z,22.9
2023-05-25T07:22:58.889Z,22.9
2023-05-25T07:24:37.643Z,22.9
2023-05-25T07:26:16.319Z,22.9
2023-05-25T07:27:55.056Z,22.9
2023-05-25T07:29:33.793Z,22.9
2023-05-25T07:30:41.113Z,22.9
2023-05-25T07:31:48.306Z,22.9
2023-05-25T07:35:56.378Z,22.9
2023-05-25T07:39:12.294Z,22.9
2023-05-25T07:40:18.267Z,22.9
2023-05-25T07:41:25.044Z,22.9
2023-05-25T07:42:31.813Z,22.9
2023-05-25T07:43:38.594Z,22.9
2023-05-25T07:45:52.139Z,22.9
2023-05-25T07:46:58.934Z,22.9
2023-05-25T07:48:05.698Z,22.9
2023-05-25T07:49:12.477Z,22.9
2023-05-25T07:50:19.292Z,22.9
2023-05-25T07:51:26.077Z,22.9
2023-05-25T07:52:32.798Z,22.9
2023-05-25T07:53:39.605Z,22.9
2023-05-25T07:54:46.352Z,22.9
2023-05-25T07:55:53.274Z,22.9
2023-05-25T07:58:06.688Z,22.9
2023-05-25T07:59:13.528Z,22.9
2023-05-25T08:00:20.298Z,22.9
2023-05-25T08:01:27.022Z,22.9
2023-05-25T08:02:33.921Z,22.9
2023-05-25T08:03:40.647Z,22.9
2023-05-25T08:04:47.416Z,22.9
2023-05-25T08:05:54.221Z,22.9
2023-05-25T08:08:07.781Z,22.9
2023-05-25T08:09:14.524Z,22.9
2023-05-25T08:10:21.289Z,22.9
2023-05-25T08:11:28.085Z,22.9
2023-05-25T08:12:34.802Z,22.9
2023-05-25T08:13:41.619Z,22.9
2023-05-25T08:14:48.527Z,22.9
2023-05-25T08:15:55.125Z,22.9
2023-05-25T08:17:01.891Z,22.9
2023-05-25T08:18:08.703Z,22.9
2023-05-25T08:19:15.450Z,22.9
2023-05-25T08:20:22.244Z,22.9
2023-05-25T08:22:34.454Z,22.9
2023-05-25T08:23:41.784Z,22.9
2023-05-25T08:24:48.945Z,22.9
2023-05-25T08:26:27.715Z,22.9
2023-05-25T08:28:06.453Z,22.9
2023-05-25T08:29:45.247Z,22.9
2023-05-25T08:31:23.935Z,22.9
2023-05-25T08:33:02.621Z,22.9
2023-05-25T08:34:41.521Z,22.9
2023-05-25T08:36:20.162Z,22.9
2023-05-25T08:37:58.835Z,22.9
2023-05-25T08:39:37.635Z,22.9
2023-05-25T08:40:44.848Z,22.9
2023-05-25T08:43:45.639Z,22.9
2023-05-25T08:47:02.194Z,22.9
2023-05-25T08:48:48.977Z,22.9
2023-05-25T08:50:27.715Z,22.9
2023-05-25T08:52:06.461Z,22.9
2023-05-25T08:53:45.108Z,22.9
2023-05-25T08:55:23.848Z,22.9
2023-05-25T08:57:02.590Z,22.9
2023-05-25T08:58:09.840Z,22.9
2023-05-25T08:59:17.106Z,22.9
2023-05-25T09:00:55.845Z,22.9
2023-05-25T09:02:34.604Z,22.9
2023-05-25T09:04:13.286Z,22.9
2023-05-25T09:05:52.135Z,22.9
2023-05-25T09:07:30.750Z,22.9
2023-05-25T09:09:09.473Z,23
2023-05-25T09:10:48.201Z,22.9
2023-05-25T09:12:26.938Z,23
2023-05-25T09:14:05.667Z,22.9
2023-05-25T09:15:12.916Z,22.9
2023-05-25T09:16:20.170Z,22.9
2023-05-25T09:17:58.907Z,22.9
2023-05-25T09:19:37.640Z,22.9
2023-05-25T09:21:16.453Z,22.9
2023-05-25T09:22:55.264Z,22.9
2023-05-25T09:24:33.823Z,22.9
2023-05-25T09:28:41.862Z,22.9
2023-05-25T09:31:39.502Z,22.9
2023-05-25T09:32:46.288Z,22.9
2023-05-25T09:33:53.045Z,22.9
2023-05-25T09:34:59.788Z,22.9
2023-05-25T09:36:06.563Z,22.9
2023-05-25T09:37:13.336Z,22.9
2023-05-25T09:38:20.111Z,22.9
2023-05-25T09:39:26.888Z,23
2023-05-25T09:40:33.716Z,23
2023-05-25T09:41:40.423Z,23
2023-05-25T09:42:47.269Z,23
2023-05-25T09:43:53.965Z,22.9
2023-05-25T09:45:00.826Z,22.9
2023-05-25T09:46:07.695Z,23
2023-05-25T09:47:14.297Z,22.9
2023-05-25T09:48:21.060Z,23
2023-05-25T09:49:27.830Z,23
2023-05-25T09:50:34.629Z,22.9
2023-05-25T09:51:41.390Z,22.9
2023-05-25T09:52:48.201Z,23
2023-05-25T09:53:54.922Z,22.9
2023-05-25T09:55:01.837Z,22.9
2023-05-25T09:56:08.533Z,22.9
2023-05-25T09:57:15.433Z,22.9
2023-05-25T09:58:22.190Z,22.9
2023-05-25T09:59:56.228Z,22.9
2023-05-25T10:01:34.987Z,22.9
2023-05-25T10:03:13.702Z,22.9
2023-05-25T10:04:52.477Z,22.9
2023-05-25T10:06:31.149Z,22.9
2023-05-25T10:07:38.441Z,23
2023-05-25T10:08:45.681Z,22.9
2023-05-25T10:10:24.419Z,22.9
2023-05-25T10:12:03.155Z,22.9
2023-05-25T10:13:41.771Z,22.9
2023-05-25T10:15:20.642Z,22.9
2023-05-25T10:16:59.342Z,22.9
2023-05-25T10:18:38.113Z,22.9
2023-05-25T10:22:46.105Z,22.9
2023-05-25T10:24:05.524Z,22.9
2023-05-25T10:26:02.501Z,22.9
2023-05-25T10:27:41.280Z,23
2023-05-25T10:29:19.969Z,22.9
2023-05-25T10:30:58.508Z,22.9
2023-05-25T10:32:37.247Z,23
2023-05-25T10:34:16.095Z,22.9
2023-05-25T10:35:54.868Z,22.9
2023-05-25T10:37:33.608Z,23
2023-05-25T10:39:12.357Z,23
2023-05-25T10:40:51.043Z,23
2023-05-25T10:41:58.264Z,23
2023-05-25T10:43:05.521Z,23
2023-05-25T10:44:44.228Z,23
2023-05-25T10:46:23.070Z,23
2023-05-25T10:48:01.699Z,23
2023-05-25T10:49:40.441Z,23
2023-05-25T10:51:19.155Z,23
2023-05-25T10:52:57.701Z,23
2023-05-25T10:54:36.595Z,23
2023-05-25T10:56:15.398Z,23
2023-05-25T10:57:54.095Z,23
2023-05-25T10:59:01.362Z,23
2023-05-25T11:00:08.609Z,23
2023-05-25T11:01:47.303Z,23
2023-05-25T11:05:55.292Z,23
2023-05-25T11:09:11.761Z,23
2023-05-25T11:10:58.418Z,23
2023-05-25T11:12:37.358Z,23.1
2023-05-25T11:14:15.955Z,23.1
2023-05-25T11:15:28.302Z,23.1
2023-05-25T11:16:35.521Z,23.1
2023-05-25T11:18:14.364Z,23.1
2023-05-25T11:19:52.911Z,23.1
2023-05-25T11:21:31.801Z,23.1
2023-05-25T11:23:10.613Z,23.1
2023-05-25T11:24:49.325Z,23.1
2023-05-25T11:26:28.046Z,23.1
2023-05-25T11:28:06.864Z,23.1
2023-05-25T11:29:45.503Z,23.2
2023-05-25T11:31:24.238Z,23.2
2023-05-25T11:32:31.546Z,23.2
2023-05-25T11:33:38.764Z,23.2
2023-05-25T11:35:17.492Z,23.2
2023-05-25T11:36:56.199Z,23.3
2023-05-25T11:38:34.950Z,23.2
2023-05-25T11:40:13.638Z,23.3
2023-05-25T11:41:52.241Z,23.3
2023-05-25T11:43:31.177Z,23.3
2023-05-25T11:45:09.857Z,23.3
2023-05-25T11:46:48.624Z,23.3
2023-05-25T11:48:59.550Z,23.3
2023-05-25T11:50:54.980Z,23.3
2023-05-25T11:52:01.964Z,23.3
2023-05-25T11:53:08.662Z,23.3
2023-05-25T11:54:15.414Z,23.3
2023-05-25T11:55:22.233Z,23.3
2023-05-25T11:57:35.627Z,23.4
2023-05-25T11:58:42.558Z,23.4
2023-05-25T11:59:49.362Z,23.4
2023-05-25T12:00:56.106Z,23.4
2023-05-25T12:02:02.847Z,23.4
2023-05-25T12:03:09.626Z,23.4
2023-05-25T12:04:16.324Z,23.4
2023-05-25T12:05:23.222Z,23.4
2023-05-25T12:06:30.010Z,23.4
2023-05-25T12:07:36.801Z,23.4
2023-05-25T12:08:43.418Z,23.4
2023-05-25T12:09:50.319Z,23.4
2023-05-25T12:10:57.086Z,23.4
2023-05-25T12:12:03.899Z,23.4
2023-05-25T12:13:10.672Z,23.4
2023-05-25T12:14:17.486Z,23.4
2023-05-25T12:16:30.930Z,23.4
2023-05-25T12:17:37.724Z,23.4
2023-05-25T12:19:49.992Z,23.4
2023-05-25T12:21:28.759Z,23.5
2023-05-25T12:22:36.011Z,23.5
2023-05-25T12:23:43.175Z,23.5
2023-05-25T12:25:22.108Z,23.5
2023-05-25T12:27:00.584Z,23.5
2023-05-25T12:28:39.366Z,23.5
2023-05-25T12:30:18.211Z,23.5
2023-05-25T12:31:56.831Z,23.5
2023-05-25T12:33:35.617Z,23.5
2023-05-25T12:35:14.260Z,23.6
2023-05-25T12:36:52.983Z,23.6
2023-05-25T12:38:31.688Z,23.6
2023-05-25T12:40:11.435Z,23.6
2023-05-25T12:43:27.546Z,23.6
2023-05-25T12:44:33.301Z,23.6
2023-05-25T12:45:39.902Z,23.5
2023-05-25T12:46:46.417Z,23.6
2023-05-25T12:47:52.878Z,23.6
2023-05-25T12:48:59.481Z,23.6
2023-05-25T12:50:05.941Z,23.6
2023-05-25T12:51:12.410Z,23.6
2023-05-25T12:52:18.933Z,23.6
2023-05-25T12:53:25.478Z,23.6
2023-05-25T12:54:32.091Z,23.6
2023-05-25T12:55:38.682Z,23.6
2023-05-25T12:56:45.200Z,23.7
2023-05-25T12:57:51.752Z,23.7
2023-05-25T12:58:58.231Z,23.7
2023-05-25T13:00:04.788Z,23.7
2023-05-25T13:01:11.323Z,23.7
2023-05-25T13:02:17.908Z,23.7
2023-05-25T13:03:24.531Z,23.7
2023-05-25T13:05:37.622Z,23.7
2023-05-25T13:06:44.063Z,23.7
2023-05-25T13:07:50.704Z,23.7
2023-05-25T13:08:57.016Z,23.7
2023-05-25T13:10:03.538Z,23.7
2023-05-25T13:11:10.270Z,23.7
2023-05-25T13:12:16.984Z,23.7
2023-05-25T13:13:23.730Z,23.7
2023-05-25T13:14:30.463Z,23.7
2023-05-25T13:15:37.283Z,23.7
2023-05-25T13:16:43.953Z,23.7
2023-05-25T13:17:50.677Z,23.7
2023-05-25T13:18:57.580Z,23.8
2023-05-25T13:20:04.412Z,23.8
2023-05-25T13:21:11.066Z,23.8
2023-05-25T13:22:17.895Z,23.8
2023-05-25T13:24:31.377Z,23.8
2023-05-25T13:25:38.201Z,23.8
2023-05-25T13:28:56.361Z,23.8
2023-05-25T13:30:35.001Z,23.8
2023-05-25T13:32:13.731Z,23.8
2023-05-25T13:33:21.010Z,23.8
2023-05-25T13:34:28.258Z,23.8
2023-05-25T13:36:07.081Z,23.8
2023-05-25T13:37:45.860Z,23.8
2023-05-25T13:39:24.651Z,23.8
2023-05-25T13:41:03.244Z,23.8
2023-05-25T13:42:41.971Z,23.6
2023-05-25T13:44:20.769Z,23.5
2023-05-25T13:45:59.435Z,23.4
2023-05-25T13:47:38.241Z,23.4
2023-05-25T13:49:48.975Z,23.5
2023-05-25T13:51:46.201Z,23.5
2023-05-25T13:55:03.648Z,23.5
2023-05-25T13:58:20.082Z,23.6
2023-05-25T14:00:06.881Z,23.6
2023-05-25T14:01:45.709Z,23.6
2023-05-25T14:03:24.378Z,23.7
2023-05-25T14:05:03.148Z,23.7
2023-05-25T14:06:42.027Z,23.7
2023-05-25T14:08:20.602Z,23.7
2023-05-25T14:09:59.435Z,23.7
2023-05-25T14:11:38.021Z,23.7
2023-05-25T14:13:16.737Z,23.7
2023-05-25T14:14:55.536Z,23.7
2023-05-25T14:16:34.247Z,23.7
2023-05-25T14:18:13.020Z,23.7
2023-05-25T14:19:51.848Z,23.7
2023-05-25T14:21:30.459Z,23.7
2023-05-25T14:22:41.973Z,23.7
2023-05-25T14:23:49.215Z,23.7
2023-05-25T14:25:28.044Z,23.7
2023-05-25T14:27:06.753Z,23.8
2023-05-25T14:28:45.442Z,23.7
2023-05-25T14:30:24.235Z,23.8
2023-05-25T14:32:02.940Z,23.8
2023-05-25T14:33:41.631Z,23.8
2023-05-25T14:35:20.350Z,23.8
2023-05-25T14:36:59.110Z,23.8
2023-05-25T14:39:09.965Z,23.8
2023-05-25T14:41:05.614Z,23.8
2023-05-25T14:42:12.435Z,23.8
2023-05-25T14:43:19.255Z,23.8
2023-05-25T14:44:26.068Z,23.8
2023-05-25T14:45:32.793Z,23.8
2023-05-25T14:46:39.537Z,23.8
2023-05-25T14:47:46.277Z,23.8
2023-05-25T14:48:53.042Z,23.8
2023-05-25T14:49:59.820Z,23.8
2023-05-25T14:51:06.610Z,23.8
2023-05-25T14:52:13.530Z,23.8
2023-05-25T14:53:20.142Z,23.8
2023-05-25T14:54:26.921Z,23.8
2023-05-25T14:55:33.692Z,23.8
2023-05-25T14:56:40.469Z,23.8
2023-05-25T14:57:47.238Z,23.8
2023-05-25T14:58:54.049Z,23.8
2023-05-25T15:00:00.851Z,23.8
2023-05-25T15:01:07.744Z,23.8
2023-05-25T15:02:14.382Z,23.9
2023-05-25T15:03:21.248Z,23.8
2023-05-25T15:04:27.895Z,23.9
2023-05-25T15:05:34.840Z,23.8
2023-05-25T15:06:41.497Z,23.8
2023-05-25T15:10:00.423Z,23.9
2023-05-25T15:11:39.269Z,23.9
2023-05-25T15:12:46.414Z,23.9
2023-05-25T15:13:53.670Z,23.9
2023-05-25T15:15:32.402Z,23.9
2023-05-25T15:17:11.127Z,23.9
2023-05-25T15:18:49.899Z,23.9
2023-05-25T15:20:28.581Z,23.9
2023-05-25T15:22:07.376Z,23.9
2023-05-25T15:23:46.081Z,23.9
2023-05-25T15:25:24.810Z,23.9
2023-05-25T15:27:03.598Z,23.9
2023-05-25T15:28:42.261Z,23.9
2023-05-25T15:30:21.995Z,23.9
2023-05-25T15:33:38.493Z,23.9
2023-05-25T15:35:25.325Z,23.9
2023-05-25T15:37:04.051Z,23.9
2023-05-25T15:38:42.784Z,23.9
2023-05-25T15:40:21.513Z,23.9
2023-05-25T15:42:00.356Z,23.9
2023-05-25T15:43:38.987Z,23.9
2023-05-25T15:45:17.765Z,23.9
2023-05-25T15:46:56.490Z,23.9
2023-05-25T15:48:35.188Z,23.9
2023-05-25T15:50:13.976Z,23.9
2023-05-25T15:51:52.652Z,23.9
2023-05-25T15:53:31.480Z,23.9
2023-05-25T15:54:38.645Z,23.9
2023-05-25T15:55:45.894Z,23.9
2023-05-25T15:57:24.630Z,23.9
2023-05-25T15:59:03.361Z,23.9
2023-05-25T16:00:42.100Z,23.9
2023-05-25T16:02:20.918Z,23.9
2023-05-25T16:03:59.609Z,23.9
2023-05-25T16:05:38.305Z,23.9
2023-05-25T16:07:17.071Z,23.9
2023-05-25T16:08:55.769Z,23.9
2023-05-25T16:10:34.625Z,23.9
2023-05-25T16:11:41.854Z,23.9
2023-05-25T16:14:42.598Z,23.9
2023-05-25T16:17:58.450Z,23.9
2023-05-25T16:19:05.218Z,23.9
2023-05-25T16:20:12.061Z,23.9
2023-05-25T16:21:18.779Z,23.9
2023-05-25T16:22:25.566Z,23.9
2023-05-25T16:23:32.409Z,23.9
2023-05-25T16:24:39.096Z,23.9
2023-05-25T16:25:45.949Z,23.9
2023-05-25T16:26:52.643Z,23.9
2023-05-25T16:27:59.454Z,23.9
2023-05-25T16:29:06.206Z,23.9
2023-05-25T16:30:13.005Z,23.9
2023-05-25T16:31:19.749Z,23.9
2023-05-25T16:32:26.617Z,23.9
2023-05-25T16:33:33.303Z,23.9
2023-05-25T16:34:40.079Z,23.9
2023-05-25T16:35:46.984Z,23.9
2023-05-25T16:36:53.796Z,23.9
2023-05-25T16:38:00.424Z,23.9
2023-05-25T16:39:07.208Z,23.9
2023-05-25T16:40:14.185Z,23.9
2023-05-25T16:41:20.776Z,23.9
2023-05-25T16:42:27.577Z,23.9
2023-05-25T16:43:34.355Z,23.9
2023-05-25T16:44:41.074Z,23.9
2023-05-25T16:46:14.454Z,23.9
2023-05-25T16:47:21.711Z,23.9
2023-05-25T16:49:00.521Z,23.9
2023-05-25T16:50:39.174Z,23.9
2023-05-25T16:52:17.930Z,23.9
2023-05-25T16:53:56.648Z,23.9
2023-05-25T16:55:35.373Z,23.9
2023-05-25T16:57:14.184Z,23.9
2023-05-25T16:58:52.952Z,23.9
2023-05-25T17:00:31.697Z,23.9
2023-05-25T17:02:10.397Z,23.9
2023-05-25T17:03:17.571Z,23.9
2023-05-25T17:04:24.837Z,23.9
2023-05-25T17:08:32.904Z,23.9
2023-05-25T17:11:50.290Z,23.9
2023-05-25T17:15:06.180Z,23.9
2023-05-25T17:16:12.957Z,23.9
2023-05-25T17:17:19.785Z,23.9
2023-05-25T17:18:26.542Z,23.9
2023-05-25T17:19:33.279Z,23.9
2023-05-25T17:20:40.106Z,23.9
2023-05-25T17:21:46.844Z,23.9
2023-05-25T17:22:53.612Z,23.9
2023-05-25T17:24:00.469Z,23.9
2023-05-25T17:25:07.159Z,23.9
2023-05-25T17:26:13.935Z,23.9
2023-05-25T17:27:20.702Z,23.9
2023-05-25T17:28:27.481Z,23.8
2023-05-25T17:29:34.268Z,23.9
2023-05-25T17:30:41.078Z,23.8
2023-05-25T17:31:47.806Z,23.9
2023-05-25T17:32:54.569Z,23.8
2023-05-25T17:34:01.390Z,23.8
2023-05-25T17:35:08.210Z,23.8
2023-05-25T17:36:14.921Z,23.8
2023-05-25T17:37:21.746Z,23.8
2023-05-25T17:38:28.546Z,23.9
2023-05-25T17:39:35.210Z,23.8
2023-05-25T17:40:41.966Z,23.8
2023-05-25T17:41:48.808Z,23.8
2023-05-25T17:44:00.965Z,23.8
2023-05-25T17:45:39.703Z,23.9
2023-05-25T17:46:46.961Z,23.8
2023-05-25T17:47:54.329Z,23.8
2023-05-25T17:49:32.966Z,23.8
2023-05-25T17:51:11.670Z,23.8
2023-05-25T17:52:50.412Z,23.8
2023-05-25T17:54:29.209Z,23.8
2023-05-25T17:56:07.899Z,23.8
2023-05-25T17:57:46.628Z,23.8
2023-05-25T17:59:25.349Z,23.8
2023-05-25T18:01:04.070Z,23.8
2023-05-25T18:02:42.811Z,23.8
2023-05-25T18:04:22.643Z,23.8
2023-05-25T18:07:38.532Z,23.8
2023-05-25T18:08:44.465Z,23.8
2023-05-25T18:09:51.249Z,23.8
2023-05-25T18:10:58.036Z,23.8
2023-05-25T18:12:04.818Z,23.8
2023-05-25T18:13:11.562Z,23.8
2023-05-25T18:14:18.341Z,23.8
2023-05-25T18:15:25.098Z,23.8
2023-05-25T18:16:32.116Z,23.8
2023-05-25T18:17:38.666Z,23.8
2023-05-25T18:18:45.444Z,23.8
2023-05-25T18:19:52.256Z,23.8
2023-05-25T18:20:59.134Z,23.8
2023-05-25T18:22:05.770Z,23.8
2023-05-25T18:23:12.589Z,23.8
2023-05-25T18:24:19.308Z,23.8
2023-05-25T18:25:26.103Z,23.8
2023-05-25T18:26:32.860Z,23.8
2023-05-25T18:27:39.699Z,23.8
2023-05-25T18:28:46.425Z,23.8
2023-05-25T18:29:53.202Z,23.8
2023-05-25T18:31:00.012Z,23.8
2023-05-25T18:32:06.857Z,23.8
2023-05-25T18:33:13.537Z,23.8
2023-05-25T18:34:20.297Z,23.8
2023-05-25T18:35:27.071Z,23.8
2023-05-25T18:36:33.937Z,23.7
2023-05-25T18:37:40.646Z,23.8
2023-05-25T18:38:47.401Z,23.8
2023-05-25T18:39:54.166Z,23.7
2023-05-25T18:41:01.022Z,23.8
2023-05-25T18:42:07.780Z,23.8
2023-05-25T18:43:14.513Z,23.8
2023-05-25T18:44:21.295Z,23.8
2023-05-25T18:45:28.050Z,23.8
2023-05-25T18:46:34.819Z,23.8
2023-05-25T18:47:41.591Z,23.8
2023-05-25T18:48:48.349Z,23.7
2023-05-25T18:51:00.572Z,23.8
2023-05-25T18:52:39.308Z,23.7
2023-05-25T18:54:18.083Z,23.8